Hatsu Envoy — VSQL9 — position and weather

sailwx.info

Track history (hours):
 
Tides and Currents Weather Stations Pressure Air Temp Water Temp Dewpoint Dewpoint Depression Visibility Wind Speed Wind Dir Waves Ship Positions

Hatsu Envoy

Last reported at 2017-Jun-29 12:31 UTC. Time now 2017-Jun-29 12:35 UTC.
Position N 37°48' W 122°21'.

Type: Cargo ship. MMSI: 235414000.

Date/timePositionNaut miles runAvg speedWind from/ knotsBaromVisibWave heightAir tempDewpointWater temp
2017-Jun-29 12:31N 37°48' W 122°21'3 6.8
2017-Jun-29 12:00N 37°49' W 122°26'510.4
2017-Jun-29 11:30N 37°48' W 122°32'713.2
2017-Jun-29 11:00N 37°45' W 122°40'4 7.3
2017-Jun-29 10:30N 37°42' W 122°40'4 8.4
2017-Jun-29 10:00N 37°38' W 122°39'4 9.0
2017-Jun-29 09:30N 37°33' W 122°39'5 9.1
2017-Jun-29 09:00N 37°29' W 122°39'5 9.0
2017-Jun-29 08:30N 37°24' W 122°39'4 8.9
2017-Jun-29 08:00N 37°20' W 122°39'5 9.8
2017-Jun-29 07:30N 37°15' W 122°39'611.3
2017-Jun-29 07:00N 37°09' W 122°38'611.4
2017-Jun-29 06:30N 37°04' W 122°37'611.4
2017-Jun-29 06:00N 36°58' W 122°35'611.5
2017-Jun-29 05:27N 36°52' W 122°32'511.5
2017-Jun-29 04:59N 36°47' W 122°30'511.3
2017-Jun-29 04:30N 36°42' W 122°27'611.3
2017-Jun-29 04:00N 36°37' W 122°25'611.3
2017-Jun-29 03:30N 36°31' W 122°23'611.3
2017-Jun-29 03:00N 36°26' W 122°20'611.4
2017-Jun-29 02:30N 36°21' W 122°17'611.8
2017-Jun-29 02:00N 36°16' W 122°14'611.5
2017-Jun-29 01:30N 36°11' W 122°10'611.7
2017-Jun-29 01:00N 36°06' W 122°06'611.8
2017-Jun-29 00:30N 36°01' W 122°02'611.6
2017-Jun-29 00:00N 35°56' W 121°59'611.6
2017-Jun-28 23:30N 35°51' W 121°55'611.5
2017-Jun-28 23:01N 35°46' W 121°51'611.7
2017-Jun-28 22:30N 35°41' W 121°48'611.6
2017-Jun-28 22:00N 35°36' W 121°44'611.6
2017-Jun-28 21:30N 35°31' W 121°40'611.8
2017-Jun-28 21:00N 35°26' W 121°36'611.9
2017-Jun-28 20:30N 35°21' W 121°33'611.9
2017-Jun-28 20:00N 35°16' W 121°29'611.8
2017-Jun-28 19:30N 35°11' W 121°25'611.8
2017-Jun-28 19:01N 35°06' W 121°22'611.8
2017-Jun-28 18:30N 35°01' W 121°18'611.7
2017-Jun-28 18:00N 34°56' W 121°14'611.8
2017-Jun-28 17:31N 34°51' W 121°10'611.8
2017-Jun-28 17:00N 34°46' W 121°06'611.7
2017-Jun-28 16:30N 34°41' W 121°03'611.8
2017-Jun-28 16:01N 34°36' W 120°59'611.8
2017-Jun-28 15:30N 34°31' W 120°55'611.5
2017-Jun-28 15:00N 34°26' W 120°51'1211.7
2017-Jun-28 14:00N 34°23' W 120°37'611.2
2017-Jun-28 13:28N 34°21' W 120°30'511.1
2017-Jun-28 13:00N 34°20' W 120°24'612.0
2017-Jun-28 12:30N 34°18' W 120°17'611.6
2017-Jun-28 12:01N 34°17' W 120°10'711.3
2017-Jun-28 11:25N 34°15' W 120°03'511.6
2017-Jun-28 11:01N 34°14' W 119°57'611.8
2017-Jun-28 10:31N 34°12' W 119°50'711.8
2017-Jun-28 09:57N 34°11' W 119°42'511.5
2017-Jun-28 09:31N 34°09' W 119°37'611.3
2017-Jun-28 09:00N 34°08' W 119°30'611.8
2017-Jun-28 08:30N 34°06' W 119°23'611.1
2017-Jun-28 08:00N 34°04' W 119°17'611.4
2017-Jun-28 07:31N 34°02' W 119°11'611.5
2017-Jun-28 07:01N 33°59' W 119°05'611.8
2017-Jun-28 06:31N 33°56' W 118°58'611.7
2017-Jun-28 06:01N 33°53' W 118°52'611.8
2017-Jun-28 05:31N 33°50' W 118°46'611.6
2017-Jun-28 05:00N 33°47' W 118°40'611.6
2017-Jun-28 04:30N 33°45' W 118°34'611.6
2017-Jun-28 04:01N 33°42' W 118°28'611.7
2017-Jun-28 03:30N 33°39' W 118°22'510.4
2017-Jun-28 03:01N 33°39' W 118°16'4 7.2
2017-Jun-28 02:31N 33°43' W 118°16'2 3.4
2017-Jun-28 01:58N 33°45' W 118°16'0 0.0
2017-Jun-28 01:28N 33°45' W 118°16'0 0.0
2017-Jun-28 00:58N 33°45' W 118°16'0 0.0
2017-Jun-28 00:28N 33°45' W 118°16'0 0.0
2017-Jun-27 23:58N 33°45' W 118°16'0 0.0
2017-Jun-27 23:25N 33°45' W 118°16'0 0.0
2017-Jun-27 22:58N 33°45' W 118°16'0 0.0
2017-Jun-27 22:28N 33°45' W 118°16'0 0.0
2017-Jun-27 21:58N 33°45' W 118°16'0 0.0
2017-Jun-27 21:28N 33°45' W 118°16'0 0.0
2017-Jun-27 20:58N 33°45' W 118°16'0 0.0
2017-Jun-27 20:28N 33°45' W 118°16'0 0.0
2017-Jun-27 19:58N 33°45' W 118°16'0 0.0
2017-Jun-27 19:28N 33°45' W 118°16'0 0.0
2017-Jun-27 18:58N 33°45' W 118°16'0 0.0
2017-Jun-27 18:07N 33°45' W 118°16'0 0.0
2017-Jun-27 17:58N 33°45' W 118°16'0 0.0
2017-Jun-27 17:28N 33°45' W 118°16'0 0.0
2017-Jun-27 16:58N 33°45' W 118°16'0 0.0
2017-Jun-27 16:28N 33°45' W 118°16'0 0.0
2017-Jun-27 15:55N 33°45' W 118°16'0 0.0
2017-Jun-27 15:28N 33°45' W 118°16'0 0.0
2017-Jun-27 14:58N 33°45' W 118°16'0 0.0
2017-Jun-27 14:28N 33°45' W 118°16'0 0.0
2017-Jun-27 13:28N 33°45' W 118°16'0 0.0
2017-Jun-27 12:58N 33°45' W 118°16'0 0.0
2017-Jun-27 12:28N 33°45' W 118°16'0 0.0
2017-Jun-27 11:58N 33°45' W 118°16'0 0.0
2017-Jun-27 11:28N 33°45' W 118°16'0 0.0
2017-Jun-27 10:58N 33°45' W 118°16'0 0.0
2017-Jun-27 10:28N 33°45' W 118°16'0 0.0
2017-Jun-27 09:58N 33°45' W 118°16'0 0.0
2017-Jun-27 09:28N 33°45' W 118°16'0 0.0
2017-Jun-27 08:55N 33°45' W 118°16'0 0.0
2017-Jun-27 08:28N 33°45' W 118°16'0 0.0
2017-Jun-27 07:58N 33°45' W 118°16'0 0.0
2017-Jun-27 07:28N 33°45' W 118°16'0 0.0
2017-Jun-27 06:58N 33°45' W 118°16'0 0.0
2017-Jun-27 06:25N 33°45' W 118°16'0 0.0
2017-Jun-27 05:58N 33°45' W 118°16'0 0.0
2017-Jun-27 05:22N 33°45' W 118°16'0 0.0
2017-Jun-27 04:58N 33°45' W 118°16'0 0.0
2017-Jun-27 04:28N 33°45' W 118°16'0 0.0
2017-Jun-27 03:58N 33°45' W 118°16'0 0.0
2017-Jun-27 03:28N 33°45' W 118°16'0 0.0
2017-Jun-27 02:55N 33°45' W 118°16'0 0.0
2017-Jun-27 02:25N 33°45' W 118°16'0 0.0
2017-Jun-27 01:58N 33°45' W 118°16'0 0.0
2017-Jun-27 01:28N 33°45' W 118°16'0 0.0
2017-Jun-27 00:58N 33°45' W 118°16'0 0.0
2017-Jun-27 00:28N 33°45' W 118°16'0 0.0
2017-Jun-26 23:58N 33°45' W 118°16'0 0.0
2017-Jun-26 23:28N 33°45' W 118°16'0 0.0
2017-Jun-26 22:55N 33°45' W 118°16'0 0.0
2017-Jun-26 22:28N 33°45' W 118°16'0 0.0
2017-Jun-26 21:58N 33°45' W 118°16'0 0.0
2017-Jun-26 21:25N 33°45' W 118°16'0 0.0
2017-Jun-26 20:58N 33°45' W 118°16'0 0.0
2017-Jun-26 20:28N 33°45' W 118°16'0 0.0
2017-Jun-26 19:58N 33°45' W 118°16'0 0.0
2017-Jun-26 19:25N 33°45' W 118°16'0 0.0
2017-Jun-26 18:58N 33°45' W 118°16'0 0.1
2017-Jun-26 18:28N 33°45' W 118°16'0 0.1
2017-Jun-26 17:58N 33°45' W 118°16'0 0.0
2017-Jun-26 17:28N 33°45' W 118°16'0 0.0
2017-Jun-26 16:58N 33°45' W 118°16'0 0.0
2017-Jun-26 16:28N 33°45' W 118°16'0 0.0
2017-Jun-26 15:58N 33°45' W 118°16'0 0.0
2017-Jun-26 15:28N 33°45' W 118°16'0 0.0
2017-Jun-26 14:58N 33°45' W 118°16'0 0.0
2017-Jun-26 14:28N 33°45' W 118°16'0 0.0
2017-Jun-26 13:28N 33°45' W 118°16'0 0.1
2017-Jun-26 12:52N 33°45' W 118°16'0 0.0
2017-Jun-26 12:28N 33°45' W 118°16'0 0.0
2017-Jun-26 11:58N 33°45' W 118°16'0 0.0
2017-Jun-26 11:28N 33°45' W 118°16'0 0.0
2017-Jun-26 10:58N 33°45' W 118°16'0 0.0
2017-Jun-26 10:28N 33°45' W 118°16'0 0.0
2017-Jun-26 09:58N 33°45' W 118°16'0 0.0
2017-Jun-26 09:25N 33°45' W 118°16'0 0.0
2017-Jun-26 08:58N 33°45' W 118°16'0 0.0
2017-Jun-26 08:28N 33°45' W 118°16'0 0.0
2017-Jun-26 07:58N 33°45' W 118°16'0 0.0
2017-Jun-26 07:28N 33°45' W 118°16'0 0.0
2017-Jun-26 06:58N 33°45' W 118°16'0 0.0
2017-Jun-26 06:28N 33°45' W 118°16'0 0.0
2017-Jun-26 05:58N 33°45' W 118°16'0 0.0
2017-Jun-26 05:28N 33°45' W 118°16'0 0.0
2017-Jun-26 04:58N 33°45' W 118°16'0 0.1
2017-Jun-26 04:28N 33°45' W 118°16'0 0.1
2017-Jun-26 03:58N 33°45' W 118°16'0 0.0
2017-Jun-26 03:28N 33°45' W 118°16'0 0.0
2017-Jun-26 02:58N 33°45' W 118°16'0 0.0
2017-Jun-26 02:25N 33°45' W 118°16'0 0.0
2017-Jun-26 01:58N 33°45' W 118°16'0 0.1
2017-Jun-26 01:28N 33°45' W 118°16'0 0.1
2017-Jun-26 00:55N 33°45' W 118°16'0 0.0
2017-Jun-26 00:28N 33°45' W 118°16'0 0.0
2017-Jun-25 23:58N 33°45' W 118°16'0 0.0
2017-Jun-25 23:25N 33°45' W 118°16'0 0.0
2017-Jun-25 22:55N 33°45' W 118°16'0 0.0
2017-Jun-25 22:28N 33°45' W 118°16'0 0.0
2017-Jun-25 21:58N 33°45' W 118°16'0 0.0
2017-Jun-25 21:28N 33°45' W 118°16'0 0.0
2017-Jun-25 20:58N 33°45' W 118°16'0 0.0
2017-Jun-25 20:25N 33°45' W 118°16'0 0.0
2017-Jun-25 19:58N 33°45' W 118°16'0 0.0
2017-Jun-25 19:28N 33°45' W 118°16'0 0.0
2017-Jun-25 18:58N 33°45' W 118°16'0 0.0
2017-Jun-25 18:28N 33°45' W 118°16'0 0.0
2017-Jun-25 17:55N 33°45' W 118°16'0 0.0
2017-Jun-25 17:28N 33°45' W 118°16'0 0.0
2017-Jun-25 16:55N 33°45' W 118°16'0 0.0
2017-Jun-25 16:25N 33°45' W 118°16'0 0.0
2017-Jun-25 15:43N 33°45' W 118°16'0 0.0
2017-Jun-25 15:19N 33°45' W 118°16'0 0.0
2017-Jun-25 14:43N 33°45' W 118°16'0 0.0
2017-Jun-25 14:25N 33°45' W 118°16'0 0.0
2017-Jun-25 13:25N 33°45' W 118°16'0 0.0
2017-Jun-25 13:00N 33°45' W 118°16'0 0.4
2017-Jun-25 12:30N 33°45' W 118°16'1 2.0
2017-Jun-25 12:00N 33°44' W 118°17'3 6.1
2017-Jun-25 11:30N 33°42' W 118°14'4 7.4
2017-Jun-25 11:00N 33°38' W 118°14'4 9.0
2017-Jun-25 10:30N 33°36' W 118°19'611.4
2017-Jun-25 10:00N 33°36' W 118°26'510.5
2017-Jun-25 09:30N 33°36' W 118°32'510.6
2017-Jun-25 09:00N 33°37' W 118°39'611.3
2017-Jun-25 08:30N 33°37' W 118°45'611.5
2017-Jun-25 08:00N 33°37' W 118°52'611.6
2017-Jun-25 07:31N 33°37' W 118°59'611.4
2017-Jun-25 07:00N 33°38' W 119°06'611.5
2017-Jun-25 06:27N 33°38' W 119°14'511.6
2017-Jun-25 06:00N 33°38' W 119°20'611.6
2017-Jun-25 05:30N 33°38' W 119°27'611.3
2017-Jun-25 05:00N 33°37' W 119°34'611.5
2017-Jun-25 04:30N 33°37' W 119°41'611.6
2017-Jun-25 04:00N 33°37' W 119°48'611.2
2017-Jun-25 03:30N 33°37' W 119°54'611.5
2017-Jun-25 03:00N 33°37' W 120°01'611.5
2017-Jun-25 02:30N 33°37' W 120°08'611.6
2017-Jun-25 02:00N 33°38' W 120°15'510.9
2017-Jun-25 01:30N 33°39' W 120°21'611.2
2017-Jun-25 00:59N 33°42' W 120°27'611.5
2017-Jun-25 00:30N 33°45' W 120°33'611.4
2017-Jun-25 00:00N 33°48' W 120°39'611.3
2017-Jun-24 23:27N 33°51' W 120°45'511.3
2017-Jun-24 22:58N 33°54' W 120°51'612.3
2017-Jun-24 22:30N 33°56' W 120°57'917.2
2017-Jun-24 22:00N 33°55' W 121°07'919.0
2017-Jun-24 21:30N 33°51' W 121°18'1018.9
2017-Jun-24 21:00N 33°47' W 121°28'1018.7
2017-Jun-24 20:28N 33°43' W 121°39'919.1
2017-Jun-24 20:00N 33°40' W 121°49'918.4
2017-Jun-24 19:30N 33°37' W 121°60'917.8
2017-Jun-24 19:01N 33°37' W 122°10'918.4
2017-Jun-24 18:30N 33°37' W 122°21'918.7
2017-Jun-24 18:01N 33°37' W 122°33'918.5
2017-Jun-24 17:31N 33°37' W 122°44'918.5
2017-Jun-24 17:01N 33°37' W 122°55'1018.9
2017-Jun-24 16:30N 33°37' W 123°06'918.8
2017-Jun-24 16:00N 33°37' W 123°18'1018.8
2017-Jun-24 15:30N 33°37' W 123°29'1018.7
2017-Jun-24 14:59N 33°37' W 123°41'2218.7
2017-Jun-24 13:50N 33°37' W 124°06'1018.5
2017-Jun-24 13:18N 33°37' W 124°18'518.6
2017-Jun-24 13:01N 33°37' W 124°25'4618.5
2017-Jun-24 10:30N 33°59' W 125°14'4018.9
2017-Jun-24 08:23N 34°20' W 125°55'1018.9
2017-Jun-24 07:51N 34°25' W 126°06'1418.9
2017-Jun-24 07:06N 34°32' W 126°21'319.0
2017-Jun-24 06:56N 34°34' W 126°24'1818.9
2017-Jun-24 05:59N 34°43' W 126°43'918.6
2017-Jun-24 05:30N 34°48' W 126°51'918.9
2017-Jun-24 05:00N 34°53' W 127°01'1018.8
2017-Jun-24 04:30N 34°58' W 127°11'1218.7
2017-Jun-24 03:52N 35°04' W 127°23'718.7
2017-Jun-24 03:30N 35°08' W 127°31'919.0
2017-Jun-24 03:01N 35°13' W 127°40'918.9
2017-Jun-24 02:30N 35°17' W 127°50'1018.8
2017-Jun-24 02:00N 35°22' W 128°01'1018.6
2017-Jun-24 01:27N 35°27' W 128°12'818.3
2017-Jun-24 01:00N 35°31' W 128°20'1218.7
2017-Jun-24 00:23N 35°37' W 128°33'718.6
2017-Jun-23 23:59N 35°41' W 128°40'918.8
2017-Jun-23 23:30N 35°45' W 128°50'1019.0
2017-Jun-23 23:00N 35°50' W 129°00'14119.0
2017-Jun-23 15:36N 36°58' W 131°34'519.1
2017-Jun-23 15:20N 37°00' W 131°39'6918.9
2017-Jun-23 11:41N 37°33' W 132°56'318.9
2017-Jun-23 11:31N 37°35' W 132°59'1527.9
2017-Jun-23 10:58N 37°42' W 133°16'4 7.6
2017-Jun-23 10:30N 37°43' W 133°20'1118.7
2017-Jun-23 09:54N 37°48' W 133°33'818.8
2017-Jun-23 09:28N 37°52' W 133°42'919.0
2017-Jun-23 08:58N 37°56' W 133°53'3318.9
2017-Jun-23 07:11N 38°12' W 134°31'4719.0
2017-Jun-23 04:43N 38°32' W 135°25'1218.8
2017-Jun-23 04:04N 38°37' W 135°39'318.9
2017-Jun-23 03:54N 38°39' W 135°42'2018.9
2017-Jun-23 02:50N 38°47' W 136°06'619.1
2017-Jun-23 02:30N 38°50' W 136°13'1618.8
2017-Jun-23 01:38N 38°57' W 136°32'218.6
2017-Jun-23 01:30N 38°58' W 136°35'  
Track history (hours):
 
Tides and Currents Weather Stations Pressure Air Temp Water Temp Dewpoint Dewpoint Depression Visibility Wind Speed Wind Dir Waves Ship Positions

Hatsu Envoy

Last reported at 2017-Jun-29 12:31 UTC. Time now 2017-Jun-29 12:35 UTC.
Position N 37°48' W 122°21'.

Type: Cargo ship. MMSI: 235414000.

Date/timePositionNaut miles runAvg speedWind from/ knotsBaromVisibWave heightAir tempDewpointWater temp
2017-Jun-29 12:31N 37°48' W 122°21'3 6.8
2017-Jun-29 12:00N 37°49' W 122°26'510.4
2017-Jun-29 11:30N 37°48' W 122°32'713.2
2017-Jun-29 11:00N 37°45' W 122°40'4 7.3
2017-Jun-29 10:30N 37°42' W 122°40'4 8.4
2017-Jun-29 10:00N 37°38' W 122°39'4 9.0
2017-Jun-29 09:30N 37°33' W 122°39'5 9.1
2017-Jun-29 09:00N 37°29' W 122°39'5 9.0
2017-Jun-29 08:30N 37°24' W 122°39'4 8.9
2017-Jun-29 08:00N 37°20' W 122°39'5 9.8
2017-Jun-29 07:30N 37°15' W 122°39'611.3
2017-Jun-29 07:00N 37°09' W 122°38'611.4
2017-Jun-29 06:30N 37°04' W 122°37'611.4
2017-Jun-29 06:00N 36°58' W 122°35'611.5
2017-Jun-29 05:27N 36°52' W 122°32'511.5
2017-Jun-29 04:59N 36°47' W 122°30'511.3
2017-Jun-29 04:30N 36°42' W 122°27'611.3
2017-Jun-29 04:00N 36°37' W 122°25'611.3
2017-Jun-29 03:30N 36°31' W 122°23'611.3
2017-Jun-29 03:00N 36°26' W 122°20'611.4
2017-Jun-29 02:30N 36°21' W 122°17'611.8
2017-Jun-29 02:00N 36°16' W 122°14'611.5
2017-Jun-29 01:30N 36°11' W 122°10'611.7
2017-Jun-29 01:00N 36°06' W 122°06'611.8
2017-Jun-29 00:30N 36°01' W 122°02'611.6
2017-Jun-29 00:00N 35°56' W 121°59'611.6
2017-Jun-28 23:30N 35°51' W 121°55'611.5
2017-Jun-28 23:01N 35°46' W 121°51'611.7
2017-Jun-28 22:30N 35°41' W 121°48'611.6
2017-Jun-28 22:00N 35°36' W 121°44'611.6
2017-Jun-28 21:30N 35°31' W 121°40'611.8
2017-Jun-28 21:00N 35°26' W 121°36'611.9
2017-Jun-28 20:30N 35°21' W 121°33'611.9
2017-Jun-28 20:00N 35°16' W 121°29'611.8
2017-Jun-28 19:30N 35°11' W 121°25'611.8
2017-Jun-28 19:01N 35°06' W 121°22'611.8
2017-Jun-28 18:30N 35°01' W 121°18'611.7
2017-Jun-28 18:00N 34°56' W 121°14'611.8
2017-Jun-28 17:31N 34°51' W 121°10'611.8
2017-Jun-28 17:00N 34°46' W 121°06'611.7
2017-Jun-28 16:30N 34°41' W 121°03'611.8
2017-Jun-28 16:01N 34°36' W 120°59'611.8
2017-Jun-28 15:30N 34°31' W 120°55'611.5
2017-Jun-28 15:00N 34°26' W 120°51'1211.7
2017-Jun-28 14:00N 34°23' W 120°37'611.2
2017-Jun-28 13:28N 34°21' W 120°30'511.1
2017-Jun-28 13:00N 34°20' W 120°24'612.0
2017-Jun-28 12:30N 34°18' W 120°17'611.6
2017-Jun-28 12:01N 34°17' W 120°10'711.3
2017-Jun-28 11:25N 34°15' W 120°03'511.6
2017-Jun-28 11:01N 34°14' W 119°57'611.8
2017-Jun-28 10:31N 34°12' W 119°50'711.8
2017-Jun-28 09:57N 34°11' W 119°42'511.5
2017-Jun-28 09:31N 34°09' W 119°37'611.3
2017-Jun-28 09:00N 34°08' W 119°30'611.8
2017-Jun-28 08:30N 34°06' W 119°23'611.1
2017-Jun-28 08:00N 34°04' W 119°17'611.4
2017-Jun-28 07:31N 34°02' W 119°11'611.5
2017-Jun-28 07:01N 33°59' W 119°05'611.8
2017-Jun-28 06:31N 33°56' W 118°58'611.7
2017-Jun-28 06:01N 33°53' W 118°52'611.8
2017-Jun-28 05:31N 33°50' W 118°46'611.6
2017-Jun-28 05:00N 33°47' W 118°40'611.6
2017-Jun-28 04:30N 33°45' W 118°34'611.6
2017-Jun-28 04:01N 33°42' W 118°28'611.7
2017-Jun-28 03:30N 33°39' W 118°22'510.4
2017-Jun-28 03:01N 33°39' W 118°16'4 7.2
2017-Jun-28 02:31N 33°43' W 118°16'2 3.4
2017-Jun-28 01:58N 33°45' W 118°16'0 0.0
2017-Jun-28 01:28N 33°45' W 118°16'0 0.0
2017-Jun-28 00:58N 33°45' W 118°16'0 0.0
2017-Jun-28 00:28N 33°45' W 118°16'0 0.0
2017-Jun-27 23:58N 33°45' W 118°16'0 0.0
2017-Jun-27 23:25N 33°45' W 118°16'0 0.0
2017-Jun-27 22:58N 33°45' W 118°16'0 0.0
2017-Jun-27 22:28N 33°45' W 118°16'0 0.0
2017-Jun-27 21:58N 33°45' W 118°16'0 0.0
2017-Jun-27 21:28N 33°45' W 118°16'0 0.0
2017-Jun-27 20:58N 33°45' W 118°16'0 0.0
2017-Jun-27 20:28N 33°45' W 118°16'0 0.0
2017-Jun-27 19:58N 33°45' W 118°16'0 0.0
2017-Jun-27 19:28N 33°45' W 118°16'0 0.0
2017-Jun-27 18:58N 33°45' W 118°16'0 0.0
2017-Jun-27 18:07N 33°45' W 118°16'0 0.0
2017-Jun-27 17:58N 33°45' W 118°16'0 0.0
2017-Jun-27 17:28N 33°45' W 118°16'0 0.0
2017-Jun-27 16:58N 33°45' W 118°16'0 0.0
2017-Jun-27 16:28N 33°45' W 118°16'0 0.0
2017-Jun-27 15:55N 33°45' W 118°16'0 0.0
2017-Jun-27 15:28N 33°45' W 118°16'0 0.0
2017-Jun-27 14:58N 33°45' W 118°16'0 0.0
2017-Jun-27 14:28N 33°45' W 118°16'0 0.0
2017-Jun-27 13:28N 33°45' W 118°16'0 0.0
2017-Jun-27 12:58N 33°45' W 118°16'0 0.0
2017-Jun-27 12:28N 33°45' W 118°16'0 0.0
2017-Jun-27 11:58N 33°45' W 118°16'0 0.0
2017-Jun-27 11:28N 33°45' W 118°16'0 0.0
2017-Jun-27 10:58N 33°45' W 118°16'0 0.0
2017-Jun-27 10:28N 33°45' W 118°16'0 0.0
2017-Jun-27 09:58N 33°45' W 118°16'0 0.0
2017-Jun-27 09:28N 33°45' W 118°16'0 0.0
2017-Jun-27 08:55N 33°45' W 118°16'0 0.0
2017-Jun-27 08:28N 33°45' W 118°16'0 0.0
2017-Jun-27 07:58N 33°45' W 118°16'0 0.0
2017-Jun-27 07:28N 33°45' W 118°16'0 0.0
2017-Jun-27 06:58N 33°45' W 118°16'0 0.0
2017-Jun-27 06:25N 33°45' W 118°16'0 0.0
2017-Jun-27 05:58N 33°45' W 118°16'0 0.0
2017-Jun-27 05:22N 33°45' W 118°16'0 0.0
2017-Jun-27 04:58N 33°45' W 118°16'0 0.0
2017-Jun-27 04:28N 33°45' W 118°16'0 0.0
2017-Jun-27 03:58N 33°45' W 118°16'0 0.0
2017-Jun-27 03:28N 33°45' W 118°16'0 0.0
2017-Jun-27 02:55N 33°45' W 118°16'0 0.0
2017-Jun-27 02:25N 33°45' W 118°16'0 0.0
2017-Jun-27 01:58N 33°45' W 118°16'0 0.0
2017-Jun-27 01:28N 33°45' W 118°16'0 0.0
2017-Jun-27 00:58N 33°45' W 118°16'0 0.0
2017-Jun-27 00:28N 33°45' W 118°16'0 0.0
2017-Jun-26 23:58N 33°45' W 118°16'0 0.0
2017-Jun-26 23:28N 33°45' W 118°16'0 0.0
2017-Jun-26 22:55N 33°45' W 118°16'0 0.0
2017-Jun-26 22:28N 33°45' W 118°16'0 0.0
2017-Jun-26 21:58N 33°45' W 118°16'0 0.0
2017-Jun-26 21:25N 33°45' W 118°16'0 0.0
2017-Jun-26 20:58N 33°45' W 118°16'0 0.0
2017-Jun-26 20:28N 33°45' W 118°16'0 0.0
2017-Jun-26 19:58N 33°45' W 118°16'0 0.0
2017-Jun-26 19:25N 33°45' W 118°16'0 0.0
2017-Jun-26 18:58N 33°45' W 118°16'0 0.1
2017-Jun-26 18:28N 33°45' W 118°16'0 0.1
2017-Jun-26 17:58N 33°45' W 118°16'0 0.0
2017-Jun-26 17:28N 33°45' W 118°16'0 0.0
2017-Jun-26 16:58N 33°45' W 118°16'0 0.0
2017-Jun-26 16:28N 33°45' W 118°16'0 0.0
2017-Jun-26 15:58N 33°45' W 118°16'0 0.0
2017-Jun-26 15:28N 33°45' W 118°16'0 0.0
2017-Jun-26 14:58N 33°45' W 118°16'0 0.0
2017-Jun-26 14:28N 33°45' W 118°16'0 0.0
2017-Jun-26 13:28N 33°45' W 118°16'0 0.1
2017-Jun-26 12:52N 33°45' W 118°16'0 0.0
2017-Jun-26 12:28N 33°45' W 118°16'0 0.0
2017-Jun-26 11:58N 33°45' W 118°16'0 0.0
2017-Jun-26 11:28N 33°45' W 118°16'0 0.0
2017-Jun-26 10:58N 33°45' W 118°16'0 0.0
2017-Jun-26 10:28N 33°45' W 118°16'0 0.0
2017-Jun-26 09:58N 33°45' W 118°16'0 0.0
2017-Jun-26 09:25N 33°45' W 118°16'0 0.0
2017-Jun-26 08:58N 33°45' W 118°16'0 0.0
2017-Jun-26 08:28N 33°45' W 118°16'0 0.0
2017-Jun-26 07:58N 33°45' W 118°16'0 0.0
2017-Jun-26 07:28N 33°45' W 118°16'0 0.0
2017-Jun-26 06:58N 33°45' W 118°16'0 0.0
2017-Jun-26 06:28N 33°45' W 118°16'0 0.0
2017-Jun-26 05:58N 33°45' W 118°16'0 0.0
2017-Jun-26 05:28N 33°45' W 118°16'0 0.0
2017-Jun-26 04:58N 33°45' W 118°16'0 0.1
2017-Jun-26 04:28N 33°45' W 118°16'0 0.1
2017-Jun-26 03:58N 33°45' W 118°16'0 0.0
2017-Jun-26 03:28N 33°45' W 118°16'0 0.0
2017-Jun-26 02:58N 33°45' W 118°16'0 0.0
2017-Jun-26 02:25N 33°45' W 118°16'0 0.0
2017-Jun-26 01:58N 33°45' W 118°16'0 0.1
2017-Jun-26 01:28N 33°45' W 118°16'0 0.1
2017-Jun-26 00:55N 33°45' W 118°16'0 0.0
2017-Jun-26 00:28N 33°45' W 118°16'0 0.0
2017-Jun-25 23:58N 33°45' W 118°16'0 0.0
2017-Jun-25 23:25N 33°45' W 118°16'0 0.0
2017-Jun-25 22:55N 33°45' W 118°16'0 0.0
2017-Jun-25 22:28N 33°45' W 118°16'0 0.0
2017-Jun-25 21:58N 33°45' W 118°16'0 0.0
2017-Jun-25 21:28N 33°45' W 118°16'0 0.0
2017-Jun-25 20:58N 33°45' W 118°16'0 0.0
2017-Jun-25 20:25N 33°45' W 118°16'0 0.0
2017-Jun-25 19:58N 33°45' W 118°16'0 0.0
2017-Jun-25 19:28N 33°45' W 118°16'0 0.0
2017-Jun-25 18:58N 33°45' W 118°16'0 0.0
2017-Jun-25 18:28N 33°45' W 118°16'0 0.0
2017-Jun-25 17:55N 33°45' W 118°16'0 0.0
2017-Jun-25 17:28N 33°45' W 118°16'0 0.0
2017-Jun-25 16:55N 33°45' W 118°16'0 0.0
2017-Jun-25 16:25N 33°45' W 118°16'0 0.0
2017-Jun-25 15:43N 33°45' W 118°16'0 0.0
2017-Jun-25 15:19N 33°45' W 118°16'0 0.0
2017-Jun-25 14:43N 33°45' W 118°16'0 0.0
2017-Jun-25 14:25N 33°45' W 118°16'0 0.0
2017-Jun-25 13:25N 33°45' W 118°16'0 0.0
2017-Jun-25 13:00N 33°45' W 118°16'0 0.4
2017-Jun-25 12:30N 33°45' W 118°16'1 2.0
2017-Jun-25 12:00N 33°44' W 118°17'3 6.1
2017-Jun-25 11:30N 33°42' W 118°14'4 7.4
2017-Jun-25 11:00N 33°38' W 118°14'4 9.0
2017-Jun-25 10:30N 33°36' W 118°19'611.4
2017-Jun-25 10:00N 33°36' W 118°26'510.5
2017-Jun-25 09:30N 33°36' W 118°32'510.6
2017-Jun-25 09:00N 33°37' W 118°39'611.3
2017-Jun-25 08:30N 33°37' W 118°45'611.5
2017-Jun-25 08:00N 33°37' W 118°52'611.6
2017-Jun-25 07:31N 33°37' W 118°59'611.4
2017-Jun-25 07:00N 33°38' W 119°06'611.5
2017-Jun-25 06:27N 33°38' W 119°14'511.6
2017-Jun-25 06:00N 33°38' W 119°20'611.6
2017-Jun-25 05:30N 33°38' W 119°27'611.3
2017-Jun-25 05:00N 33°37' W 119°34'611.5
2017-Jun-25 04:30N 33°37' W 119°41'611.6
2017-Jun-25 04:00N 33°37' W 119°48'611.2
2017-Jun-25 03:30N 33°37' W 119°54'611.5
2017-Jun-25 03:00N 33°37' W 120°01'611.5
2017-Jun-25 02:30N 33°37' W 120°08'611.6
2017-Jun-25 02:00N 33°38' W 120°15'510.9
2017-Jun-25 01:30N 33°39' W 120°21'611.2
2017-Jun-25 00:59N 33°42' W 120°27'611.5
2017-Jun-25 00:30N 33°45' W 120°33'611.4
2017-Jun-25 00:00N 33°48' W 120°39'611.3
2017-Jun-24 23:27N 33°51' W 120°45'511.3
2017-Jun-24 22:58N 33°54' W 120°51'612.3
2017-Jun-24 22:30N 33°56' W 120°57'917.2
2017-Jun-24 22:00N 33°55' W 121°07'919.0
2017-Jun-24 21:30N 33°51' W 121°18'1018.9
2017-Jun-24 21:00N 33°47' W 121°28'1018.7
2017-Jun-24 20:28N 33°43' W 121°39'919.1
2017-Jun-24 20:00N 33°40' W 121°49'918.4
2017-Jun-24 19:30N 33°37' W 121°60'917.8
2017-Jun-24 19:01N 33°37' W 122°10'918.4
2017-Jun-24 18:30N 33°37' W 122°21'918.7
2017-Jun-24 18:01N 33°37' W 122°33'918.5
2017-Jun-24 17:31N 33°37' W 122°44'918.5
2017-Jun-24 17:01N 33°37' W 122°55'1018.9
2017-Jun-24 16:30N 33°37' W 123°06'918.8
2017-Jun-24 16:00N 33°37' W 123°18'1018.8
2017-Jun-24 15:30N 33°37' W 123°29'1018.7
2017-Jun-24 14:59N 33°37' W 123°41'2218.7
2017-Jun-24 13:50N 33°37' W 124°06'1018.5
2017-Jun-24 13:18N 33°37' W 124°18'518.6
2017-Jun-24 13:01N 33°37' W 124°25'4618.5
2017-Jun-24 10:30N 33°59' W 125°14'4018.9
2017-Jun-24 08:23N 34°20' W 125°55'1018.9
2017-Jun-24 07:51N 34°25' W 126°06'1418.9
2017-Jun-24 07:06N 34°32' W 126°21'319.0
2017-Jun-24 06:56N 34°34' W 126°24'1818.9
2017-Jun-24 05:59N 34°43' W 126°43'918.6
2017-Jun-24 05:30N 34°48' W 126°51'918.9
2017-Jun-24 05:00N 34°53' W 127°01'1018.8
2017-Jun-24 04:30N 34°58' W 127°11'1218.7
2017-Jun-24 03:52N 35°04' W 127°23'718.7
2017-Jun-24 03:30N 35°08' W 127°31'919.0
2017-Jun-24 03:01N 35°13' W 127°40'918.9
2017-Jun-24 02:30N 35°17' W 127°50'1018.8
2017-Jun-24 02:00N 35°22' W 128°01'1018.6
2017-Jun-24 01:27N 35°27' W 128°12'818.3
2017-Jun-24 01:00N 35°31' W 128°20'1218.7
2017-Jun-24 00:23N 35°37' W 128°33'718.6
2017-Jun-23 23:59N 35°41' W 128°40'918.8
2017-Jun-23 23:30N 35°45' W 128°50'1019.0
2017-Jun-23 23:00N 35°50' W 129°00'14119.0
2017-Jun-23 15:36N 36°58' W 131°34'519.1
2017-Jun-23 15:20N 37°00' W 131°39'6918.9
2017-Jun-23 11:41N 37°33' W 132°56'318.9
2017-Jun-23 11:31N 37°35' W 132°59'1527.9
2017-Jun-23 10:58N 37°42' W 133°16'4 7.6
2017-Jun-23 10:30N 37°43' W 133°20'1118.7
2017-Jun-23 09:54N 37°48' W 133°33'818.8
2017-Jun-23 09:28N 37°52' W 133°42'919.0
2017-Jun-23 08:58N 37°56' W 133°53'3318.9
2017-Jun-23 07:11N 38°12' W 134°31'4719.0
2017-Jun-23 04:43N 38°32' W 135°25'1218.8
2017-Jun-23 04:04N 38°37' W 135°39'318.9
2017-Jun-23 03:54N 38°39' W 135°42'2018.9
2017-Jun-23 02:50N 38°47' W 136°06'619.1
2017-Jun-23 02:30N 38°50' W 136°13'1618.8
2017-Jun-23 01:38N 38°57' W 136°32'218.6
2017-Jun-23 01:30N 38°58' W 136°35'  

Dump ship's entire track history